<?xml version="1.0" encoding="UTF-8" standalone="no" ?>
<gpx xmlns="http://www.topografix.com/GPX/1/1" xmlns:xsi="http://www.w3.org/2001/XMLSchema-instance" xsi:schemaLocation="http://www.topografix.com/GPX/1/1 http://www.topografix.com/GPX/1/1/gpx.xsd" version="1.1" creator="VisuGPX - https://www.visugpx.com">
  <metadata>
    <name>242011</name>
    <desc><![CDATA[Balade vendéenne 4]]></desc>
  </metadata>
  <trk>
    <name><![CDATA[ACTIVE LOG094248]]></name>
    <trkseg>
      <trkpt lat="46.82255" lon="-2.13069">
        <ele>-2.991</ele>
        <time>2011-08-09T07:42:47Z</time>
      </trkpt>
      <trkpt lat="46.82255" lon="-2.1307">
        <ele>-3.06</ele>
        <time>2011-08-09T07:42:48Z</time>
      </trkpt>
      <trkpt lat="46.82252" lon="-2.13071">
        <ele>-3.033</ele>
        <time>2011-08-09T07:42:50Z</time>
      </trkpt>
      <trkpt lat="46.82244" lon="-2.13075">
        <ele>-2.854</ele>
        <time>2011-08-09T07:43:02Z</time>
      </trkpt>
      <trkpt lat="46.82233" lon="-2.13073">
        <ele>-3.324</ele>
        <time>2011-08-09T07:43:41Z</time>
      </trkpt>
      <trkpt lat="46.82234" lon="-2.1308">
        <ele>-3.218</ele>
        <time>2011-08-09T07:44:12Z</time>
      </trkpt>
      <trkpt lat="46.82227" lon="-2.13082">
        <ele>-3.292</ele>
        <time>2011-08-09T07:44:49Z</time>
      </trkpt>
      <trkpt lat="46.8223" lon="-2.1309">
        <ele>-3.419</ele>
        <time>2011-08-09T07:46:08Z</time>
      </trkpt>
      <trkpt lat="46.8223" lon="-2.1308">
        <ele>-3.366</ele>
        <time>2011-08-09T07:46:34Z</time>
      </trkpt>
      <trkpt lat="46.82216" lon="-2.13084">
        <ele>-0.251</ele>
        <time>2011-08-09T07:48:00Z</time>
      </trkpt>
      <trkpt lat="46.82215" lon="-2.13085">
        <ele>3.02</ele>
        <time>2011-08-09T07:48:07Z</time>
      </trkpt>
      <trkpt lat="46.82214" lon="-2.13085">
        <ele>6.334</ele>
        <time>2011-08-09T07:48:15Z</time>
      </trkpt>
      <trkpt lat="46.82214" lon="-2.13085">
        <ele>9.427</ele>
        <time>2011-08-09T07:48:25Z</time>
      </trkpt>
      <trkpt lat="46.82214" lon="-2.13084">
        <ele>13.1</ele>
        <time>2011-08-09T07:48:41Z</time>
      </trkpt>
      <trkpt lat="46.82213" lon="-2.13083">
        <ele>12.869</ele>
        <time>2011-08-09T07:49:01Z</time>
      </trkpt>
      <trkpt lat="46.82206" lon="-2.1308">
        <ele>12.709</ele>
        <time>2011-08-09T07:49:13Z</time>
      </trkpt>
      <trkpt lat="46.82198" lon="-2.13082">
        <ele>12.728</ele>
        <time>2011-08-09T07:49:19Z</time>
      </trkpt>
      <trkpt lat="46.82182" lon="-2.13098">
        <ele>14.04</ele>
        <time>2011-08-09T07:49:35Z</time>
      </trkpt>
      <trkpt lat="46.82181" lon="-2.13098">
        <ele>10.579</ele>
        <time>2011-08-09T07:49:40Z</time>
      </trkpt>
      <trkpt lat="46.82181" lon="-2.13098">
        <ele>14.782</ele>
        <time>2011-08-09T07:49:41Z</time>
      </trkpt>
      <trkpt lat="46.82181" lon="-2.13098">
        <ele>11.344</ele>
        <time>2011-08-09T07:49:44Z</time>
      </trkpt>
      <trkpt lat="46.82181" lon="-2.13098">
        <ele>12.938</ele>
        <time>2011-08-09T07:49:45Z</time>
      </trkpt>
      <trkpt lat="46.82181" lon="-2.13098">
        <ele>15.997</ele>
        <time>2011-08-09T07:49:46Z</time>
      </trkpt>
      <trkpt lat="46.82181" lon="-2.13098">
        <ele>12.359</ele>
        <time>2011-08-09T07:49:47Z</time>
      </trkpt>
      <trkpt lat="46.8218" lon="-2.13098">
        <ele>15.747</ele>
        <time>2011-08-09T07:49:49Z</time>
      </trkpt>
      <trkpt lat="46.82178" lon="-2.13097">
        <ele>12.721</ele>
        <time>2011-08-09T07:50:11Z</time>
      </trkpt>
    </trkseg>
  </trk>
</gpx>